Time;durP1;ratioP1;P1;durP2;ratioP2;P2;SDS_P1;SDS_P2;PMS_P1;PMS_P2;Temp;Humidity;BMP_temperature;BMP_pressure;BME280_temperature;BME280_humidity;BME280_pressure;Samples;Min_cycle;Max_cycle;Signal;HPM_P1;HPM_P2
2021/10/22 00:00:35;;;;;;;16.23;4.72;;;12.20;99.90;;;12.32;53.79;101337.03;4842452;29;20538;-73
2021/10/22 00:03:04;;;;;;;10.82;4.65;;;12.20;99.90;;;11.52;52.81;101214.44;4843570;29;20044;-73
2021/10/22 00:05:34;;;;;;;13.80;4.43;;;12.00;99.90;;;12.15;52.37;101322.06;4843305;29;20081;-72
2021/10/22 00:08:03;;;;;;;13.60;4.70;;;12.10;99.90;;;12.23;53.05;101339.72;4843570;29;20054;-73
2021/10/22 00:10:32;;;;;;;11.90;4.20;;;12.10;99.90;;;12.32;53.30;101330.84;4842242;29;20133;-73
2021/10/22 00:13:00;;;;;;;16.45;4.93;;;12.10;99.90;;;12.25;53.40;101334.44;4842262;29;20118;-72
2021/10/22 00:15:29;;;;;;;11.20;4.15;;;12.10;99.90;;;12.35;53.32;101339.66;4843036;29;20054;-73
2021/10/22 00:17:58;;;;;;;16.92;4.50;;;12.10;99.90;;;12.43;53.34;101342.28;4843025;29;20042;-72
2021/10/22 00:20:26;;;;;;;13.68;4.63;;;12.20;99.90;;;12.28;53.38;101339.69;4843035;29;20073;-72
2021/10/22 00:22:56;;;;;;;10.23;4.53;;;12.20;99.90;;;12.32;53.56;101341.47;4843032;29;20447;-73
2021/10/22 00:25:24;;;;;;;14.97;5.07;;;12.10;99.90;;;12.10;54.53;101337.13;4843062;29;20062;-72
2021/10/22 00:27:53;;;;;;;14.55;4.65;;;12.00;99.90;;;12.26;54.20;101347.66;4843259;29;20058;-72
2021/10/22 00:30:22;;;;;;;19.45;5.00;;;12.00;99.90;;;12.24;53.86;101338.84;4842965;29;20593;-72
2021/10/22 00:32:50;;;;;;;18.17;5.22;;;12.00;99.90;;;12.32;53.47;101344.09;4843134;29;20049;-72
2021/10/22 00:35:19;;;;;;;14.57;4.43;;;12.10;99.90;;;12.27;53.26;101327.34;4842914;29;20049;-72
2021/10/22 00:37:47;;;;;;;16.52;4.93;;;12.10;99.90;;;11.51;52.78;101212.69;4841777;29;20054;-73
2021/10/22 00:40:21;;;;;;;13.98;4.88;;;12.00;99.90;;;12.01;52.82;101292.06;4842770;29;20046;-72
2021/10/22 00:42:49;;;;;;;13.25;4.43;;;12.00;99.90;;;12.35;53.17;101336.16;4843099;29;20094;-73
2021/10/22 00:45:18;;;;;;;9.45;4.30;;;12.10;99.90;;;12.13;53.46;101292.03;4841391;29;20571;-72
2021/10/22 00:47:46;;;;;;;10.18;4.28;;;12.10;99.90;;;12.32;53.07;101338.81;4842657;29;20046;-72
2021/10/22 00:50:14;;;;;;;11.52;4.07;;;12.20;99.90;;;12.38;52.94;101320.22;4841742;29;20125;-72
2021/10/22 00:52:46;;;;;;;12.38;5.07;;;12.20;99.90;;;12.26;53.31;101321.16;4842579;29;20046;-72
2021/10/22 00:55:16;;;;;;;14.05;4.72;;;12.10;99.90;;;12.24;53.28;101325.56;4842631;29;20050;-72
2021/10/22 00:57:46;;;;;;;14.73;5.03;;;12.10;99.90;;;12.34;53.39;101329.06;4842627;29;20082;-72
2021/10/22 01:00:14;;;;;;;20.80;6.13;;;12.10;99.90;;;12.23;54.24;101322.94;4842568;29;20049;-72
2021/10/22 01:02:42;;;;;;;16.42;5.20;;;12.10;99.90;;;12.20;54.74;101325.56;4842485;29;20465;-72
2021/10/22 01:05:13;;;;;;;14.45;5.50;;;12.00;99.90;;;12.19;55.17;101330.03;4842670;29;20057;-72
2021/10/22 01:07:43;;;;;;;18.20;5.03;;;12.00;99.90;;;12.13;55.60;101335.34;4842589;29;20058;-72
2021/10/22 01:10:13;;;;;;;15.57;5.13;;;12.00;99.90;;;12.15;55.99;101317.66;4842705;29;20141;-72
2021/10/22 01:12:44;;;;;;;17.33;5.03;;;12.00;99.90;;;12.19;56.39;101323.84;4842672;29;20053;-72
2021/10/22 01:15:14;;;;;;;15.02;4.88;;;12.00;99.90;;;12.17;56.68;101325.59;4842774;29;20054;-72
2021/10/22 01:17:46;;;;;;;18.27;5.60;;;12.00;99.90;;;12.02;56.82;101315.91;4842253;29;20072;-72
2021/10/22 01:20:17;;;;;;;15.38;5.32;;;12.00;99.90;;;12.19;57.05;101331.78;4842341;29;20053;-72
2021/10/22 01:22:50;;;;;;;16.67;5.20;;;12.00;99.90;;;12.36;57.03;101381.25;4842364;29;20102;-72
2021/10/22 01:25:21;;;;;;;17.80;5.63;;;12.10;99.90;;;12.29;57.36;101331.72;4842565;29;20132;-72
2021/10/22 01:27:50;;;;;;;22.83;5.70;;;12.10;99.90;;;12.25;57.41;101307.91;4842332;29;20054;-72
2021/10/22 01:30:21;;;;;;;18.35;4.57;;;12.10;99.90;;;12.11;57.45;101310.59;4842262;29;20468;-72
2021/10/22 01:32:53;;;;;;;17.83;5.68;;;12.00;99.90;;;12.33;56.71;101311.41;4842282;29;20045;-72
2021/10/22 01:35:21;;;;;;;18.98;5.15;;;12.10;99.90;;;12.36;56.74;101303.41;4842282;29;20099;-72
2021/10/22 01:37:51;;;;;;;25.98;5.88;;;12.20;99.90;;;12.24;57.24;101261.03;4841158;29;20077;-72
2021/10/22 01:40:20;;;;;;;17.70;5.60;;;12.20;99.90;;;12.37;57.67;101289.25;4842465;29;20057;-72
2021/10/22 01:42:48;;;;;;;21.83;5.90;;;12.20;99.90;;;12.36;58.63;101295.47;4842434;29;20341;-72
2021/10/22 01:45:18;;;;;;;18.77;5.05;;;12.20;99.90;;;12.20;59.37;101277.84;4842532;29;20042;-72
2021/10/22 01:47:48;;;;;;;20.98;5.82;;;12.20;99.90;;;11.63;60.02;101162.31;4842092;29;20133;-72
2021/10/22 01:50:16;;;;;;;21.08;5.70;;;12.10;99.90;;;12.20;60.76;101248.66;4842377;29;20106;-72
2021/10/22 01:52:46;;;;;;;23.73;5.68;;;12.20;99.90;;;12.57;61.30;101285.63;4842582;29;20073;-72
2021/10/22 01:55:15;;;;;;;23.85;6.20;;;12.30;99.90;;;12.36;62.36;101285.75;4842237;29;20050;-72
2021/10/22 01:57:44;;;;;;;16.63;5.10;;;12.30;99.90;;;12.49;61.91;101289.19;4841751;29;20459;-72
2021/10/22 02:00:13;;;;;;;24.13;6.22;;;12.30;99.90;;;12.55;62.06;101291.81;4842127;29;20334;-72
2021/10/22 02:02:41;;;;;;;17.20;5.38;;;12.30;99.90;;;12.35;61.47;101264.53;4846011;29;20052;-72
2021/10/22 02:05:10;;;;;;;16.83;5.00;;;12.30;99.90;;;12.46;61.15;101279.50;4845413;29;20046;-72
2021/10/22 02:07:39;;;;;;;14.90;4.65;;;12.40;99.90;;;12.27;61.33;101253.06;4845673;29;20046;-72
2021/10/22 02:10:08;;;;;;;13.50;4.78;;;12.30;99.90;;;12.31;62.19;101276.03;4845656;29;20106;-72
2021/10/22 02:12:38;;;;;;;18.67;5.22;;;12.20;99.90;;;12.38;61.94;101272.47;4845583;29;20050;-72
2021/10/22 02:15:08;;;;;;;16.98;4.70;;;12.20;99.90;;;12.36;61.76;101276.88;4845964;29;20053;-72
2021/10/22 02:17:36;;;;;;;13.63;4.85;;;12.20;99.90;;;12.33;61.74;101268.97;4845509;29;20492;-72
2021/10/22 02:20:07;;;;;;;25.35;5.75;;;12.10;99.90;;;12.43;61.42;101268.00;4845470;29;20045;-72
2021/10/22 02:22:36;;;;;;;17.10;4.45;;;12.20;99.90;;;12.43;61.10;101271.53;4845757;29;20046;-72
2021/10/22 02:25:07;;;;;;;12.73;4.53;;;12.20;99.90;;;11.73;61.73;101204.69;4845641;29;20125;-72
2021/10/22 02:27:37;;;;;;;13.55;4.40;;;12.20;99.90;;;12.47;61.58;101264.44;4845140;29;20045;-72
2021/10/22 02:30:20;;;;;;;13.80;4.82;;;12.20;99.90;;;11.72;61.49;101114.63;4845134;29;20054;-72
2021/10/22 02:32:48;;;;;;;17.95;4.80;;;12.40;99.90;;;12.33;61.77;101263.66;4845029;29;20099;-72
2021/10/22 02:35:17;;;;;;;25.13;4.72;;;12.20;99.90;;;11.73;61.46;101149.03;4844923;29;20121;-72
2021/10/22 02:37:46;;;;;;;15.55;4.78;;;12.20;99.90;;;12.35;62.28;101260.09;4844901;29;20078;-72
2021/10/22 02:40:16;;;;;;;15.55;5.50;;;12.20;99.90;;;12.49;62.84;101355.53;4844784;29;20042;-72
2021/10/22 02:42:46;;;;;;;18.20;4.80;;;12.30;99.90;;;12.52;62.68;101252.03;4843862;29;20500;-72
2021/10/22 02:45:15;;;;;;;19.92;4.95;;;12.30;99.90;;;12.51;62.91;101242.31;4844776;29;20076;-72
2021/10/22 02:47:44;;;;;;;13.63;4.97;;;12.40;99.90;;;12.64;63.21;101257.25;4845279;29;20133;-72
2021/10/22 02:50:13;;;;;;;17.00;5.10;;;12.40;99.90;;;12.57;64.05;101260.84;4844705;29;20042;-72
2021/10/22 02:52:41;;;;;;;21.65;5.68;;;12.40;99.90;;;12.64;64.21;101260.78;4844651;29;20131;-72
2021/10/22 02:55:10;;;;;;;16.23;5.05;;;12.50;99.90;;;12.63;64.16;101256.38;4844912;29;20378;-72
2021/10/22 02:57:39;;;;;;;18.75;5.43;;;12.50;99.90;;;12.53;64.71;101235.22;4844571;29;20120;-72
2021/10/22 03:00:11;;;;;;;15.88;5.13;;;12.50;99.90;;;12.61;64.73;101231.63;4844740;29;20090;-72
2021/10/22 03:02:41;;;;;;;14.75;4.78;;;12.50;99.90;;;10.66;65.00;100891.81;4843533;29;20058;-72
2021/10/22 03:05:11;;;;;;;15.77;4.83;;;12.50;99.90;;;12.76;64.82;101243.91;4843507;29;20493;-72
2021/10/22 03:07:40;;;;;;;15.17;4.60;;;12.60;99.90;;;12.58;64.39;101242.25;4844457;29;20096;-72
2021/10/22 03:10:10;;;;;;;16.17;4.65;;;12.50;99.90;;;12.73;64.22;101251.00;4844320;29;20390;-72
2021/10/22 03:12:39;;;;;;;14.43;5.03;;;12.50;99.90;;;12.46;64.94;101220.25;4843689;29;20048;-72
2021/10/22 03:15:10;;;;;;;14.50;5.03;;;12.50;99.90;;;12.68;64.60;101219.19;4844452;29;20129;-72
2021/10/22 03:17:39;;;;;;;19.15;4.90;;;12.60;99.90;;;12.62;65.03;101211.25;4844247;29;20065;-72
2021/10/22 03:20:09;;;;;;;14.88;4.65;;;12.60;99.90;;;12.66;67.15;101259.00;4844430;29;20077;-72
2021/10/22 03:22:38;;;;;;;13.38;4.63;;;12.50;99.90;;;12.41;69.43;101235.28;4844205;29;20049;-72
2021/10/22 03:25:08;;;;;;;17.48;5.82;;;12.40;99.90;;;12.40;70.61;101253.00;4844320;29;20481;-72
2021/10/22 03:27:37;;;;;;;12.53;4.97;;;12.20;99.90;;;12.24;70.24;101238.06;4844290;29;20401;-72
2021/10/22 03:30:07;;;;;;;15.60;5.10;;;12.10;99.90;;;12.25;70.19;101234.50;4843005;29;20765;-72
2021/10/22 03:32:39;;;;;;;17.10;5.13;;;12.10;99.90;;;11.92;69.18;101189.63;4844266;29;20069;-72
2021/10/22 03:35:11;;;;;;;14.50;4.63;;;12.10;99.90;;;12.26;69.18;101230.97;4844168;29;20098;-72
2021/10/22 03:37:39;;;;;;;16.17;5.07;;;12.10;99.90;;;12.28;69.30;101215.03;4843830;29;20046;-72
2021/10/22 03:40:10;;;;;;;13.35;4.85;;;12.20;99.90;;;12.41;69.20;101245.91;4844045;29;20060;-72
2021/10/22 03:42:38;;;;;;;12.60;4.53;;;12.20;99.90;;;12.51;69.04;101237.00;4843839;29;20045;-72
2021/10/22 03:45:09;;;;;;;15.90;4.57;;;12.30;99.90;;;12.42;68.51;101229.09;4843607;29;20090;-72
2021/10/22 03:47:38;;;;;;;16.65;4.75;;;12.30;99.90;;;12.56;68.35;101238.72;4843790;29;20079;-72
2021/10/22 03:50:08;;;;;;;18.23;6.13;;;12.40;99.90;;;12.58;68.07;101238.75;4844221;29;20054;-72
2021/10/22 03:52:38;;;;;;;14.90;5.60;;;12.40;99.90;;;12.47;67.78;101225.53;4842640;29;20056;-72
2021/10/22 03:55:07;;;;;;;17.52;4.82;;;12.40;99.90;;;10.00;67.88;100780.16;4843822;29;20078;-72
2021/10/22 03:57:36;;;;;;;14.73;4.65;;;12.40;99.90;;;12.52;66.65;101220.22;4843463;29;20053;-73
2021/10/22 04:00:06;;;;;;;12.63;4.47;;;12.40;99.90;;;12.35;66.49;101208.81;4843762;29;20575;-72
2021/10/22 04:02:40;;;;;;;18.63;5.20;;;12.40;99.90;;;12.45;66.06;101205.19;4843407;29;20053;-72
2021/10/22 04:05:12;;;;;;;19.35;5.30;;;12.50;99.90;;;12.51;66.46;101227.28;4843655;29;20462;-71
2021/10/22 04:07:42;;;;;;;17.00;5.38;;;12.40;99.90;;;12.53;66.97;101245.84;4843602;29;20481;-74
2021/10/22 04:10:13;;;;;;;24.67;6.63;;;12.40;99.90;;;12.56;67.19;101246.69;4843593;29;20050;-74
2021/10/22 04:12:45;;;;;;;28.08;6.20;;;12.40;99.90;;;12.62;67.42;101261.69;4843484;29;20057;-78
2021/10/22 04:15:13;;;;;;;21.63;5.38;;;12.40;99.90;;;12.55;67.01;101238.75;4843578;29;20053;-76
2021/10/22 04:17:43;;;;;;;11.95;4.22;;;12.50;99.90;;;12.55;66.27;101263.50;4843435;29;20462;-77
2021/10/22 04:20:12;;;;;;;18.03;4.30;;;12.40;99.90;;;12.16;64.28;101229.25;4843331;29;20056;-76
2021/10/22 04:22:41;;;;;;;8.23;3.60;;;12.30;99.90;;;12.12;62.53;101255.78;4841929;29;20295;-75
2021/10/22 04:25:10;;;;;;;12.10;4.35;;;12.10;99.90;;;12.30;61.96;101261.00;4842792;29;20046;-74
2021/10/22 04:27:38;;;;;;;8.30;4.22;;;12.10;99.90;;;12.43;62.68;101270.66;4843228;29;20082;-74
2021/10/22 04:30:09;;;;;;;16.35;4.13;;;12.20;99.90;;;12.10;62.76;101234.56;4843394;29;20083;-74
2021/10/22 04:32:37;;;;;;;;;;;12.20;99.90;;;12.34;63.35;101249.50;4843516;29;20102;-74
2021/10/22 04:35:10;;;;;;;9.73;3.95;;;12.20;99.90;;;12.40;63.51;101268.91;4843126;29;19924;-74
2021/10/22 04:37:48;;;;;;;11.77;4.30;;;12.20;99.90;;;12.29;64.99;101273.38;4842866;29;20099;-74
2021/10/22 04:40:32;;;;;;;14.63;4.72;;;12.10;99.90;;;12.34;65.56;101270.72;4843045;29;20050;-74
2021/10/22 04:43:04;;;;;;;12.57;5.20;;;12.10;99.90;;;12.44;65.45;101283.03;4842775;29;20092;-74
2021/10/22 04:45:36;;;;;;;15.20;4.65;;;12.20;99.90;;;12.29;64.75;101264.56;4843139;29;20116;-74
2021/10/22 04:48:07;;;;;;;11.10;4.13;;;12.20;99.90;;;12.39;64.84;101276.84;4843044;29;20073;-74
2021/10/22 04:50:43;;;;;;;9.85;3.70;;;12.20;99.90;;;12.41;64.86;101269.78;4842748;29;20462;-74
2021/10/22 04:53:11;;;;;;;14.57;5.03;;;12.30;99.90;;;12.30;65.17;101263.66;4841376;29;20065;-74
2021/10/22 04:55:40;;;;;;;14.13;4.30;;;12.30;99.90;;;12.44;64.72;101256.50;4842788;29;20443;-74
2021/10/22 04:58:09;;;;;;;12.55;4.25;;;12.20;99.90;;;12.47;64.63;101270.63;4842641;29;20054;-74
2021/10/22 05:00:58;;;;;;;17.38;5.50;;;12.30;99.90;;;12.64;66.13;101266.09;4842888;29;20142;-74
2021/10/22 05:03:27;;;;;;;16.17;4.95;;;12.40;99.90;;;12.67;67.05;101243.97;4842398;29;20042;-74
2021/10/22 05:05:57;;;;;;;12.52;4.78;;;12.50;99.90;;;12.71;67.66;101253.69;4841508;29;20050;-74
2021/10/22 05:08:25;;;;;;;17.40;5.25;;;12.50;99.90;;;12.49;66.54;101210.47;4842534;29;20053;-74
2021/10/22 05:10:55;;;;;;;16.48;5.30;;;12.50;99.90;;;12.74;67.18;101248.34;4842671;29;20109;-74
2021/10/22 05:13:23;;;;;;;13.65;5.05;;;12.60;99.90;;;12.49;68.99;101238.78;4841419;29;20057;-74
2021/10/22 05:15:52;;;;;;;12.75;4.82;;;12.40;99.90;;;12.44;69.73;101233.53;4842321;29;20062;-74
2021/10/22 05:18:20;;;;;;;16.27;5.28;;;12.40;99.90;;;12.40;72.49;101263.63;4841405;29;20106;-74
2021/10/22 05:20:49;;;;;;;15.25;4.90;;;12.20;99.90;;;12.07;75.01;101223.09;4842249;29;20042;-74
2021/10/22 05:23:18;;;;;;;11.65;5.28;;;12.10;99.90;;;11.93;75.96;101201.97;4842294;29;20477;-75
2021/10/22 05:25:47;;;;;;;17.00;5.53;;;12.00;99.90;;;12.11;76.31;101230.16;4842247;29;20501;-74
2021/10/22 05:28:15;;;;;;;14.10;4.55;;;12.00;99.90;;;11.53;74.91;101150.00;4842478;29;20125;-74
2021/10/22 05:30:44;;;;;;;12.02;4.40;;;11.80;99.90;;;11.84;72.92;101224.97;4842237;29;20050;-74
2021/10/22 05:33:13;;;;;;;19.27;4.75;;;11.70;99.90;;;11.89;72.60;101233.78;4841274;29;20073;-74
2021/10/22 05:35:41;;;;;;;14.45;4.85;;;11.70;99.90;;;11.95;71.59;101223.16;4843129;29;20466;-74
2021/10/22 05:38:10;;;;;;;14.68;4.97;;;11.70;99.90;;;11.81;71.26;101235.59;4845985;29;20455;-74
2021/10/22 05:40:40;;;;;;;21.45;5.18;;;11.70;99.90;;;11.75;70.30;101223.22;4845830;29;20053;-74
2021/10/22 05:43:08;;;;;;;12.13;4.45;;;11.60;99.90;;;11.85;70.05;101217.03;4845868;29;20590;-74
2021/10/22 05:45:37;;;;;;;13.40;4.80;;;11.70;99.90;;;11.94;69.50;101221.41;4846370;29;20077;-74
2021/10/22 05:48:06;;;;;;;17.63;4.30;;;11.80;99.90;;;11.73;68.54;101174.66;4846241;29;20077;-74
2021/10/22 05:50:34;;;;;;;15.45;4.65;;;11.80;99.90;;;12.05;69.02;101223.13;4845752;29;20077;-73
2021/10/22 05:53:03;;;;;;;18.77;4.75;;;11.90;99.90;;;12.09;68.17;101206.31;4845804;29;20041;-74
2021/10/22 05:55:31;;;;;;;17.83;5.53;;;11.90;99.90;;;12.17;68.86;101224.84;4845635;29;20515;-74
2021/10/22 05:58:01;;;;;;;15.82;4.50;;;11.90;99.90;;;12.09;68.02;101214.28;4845510;29;20042;-74
2021/10/22 06:00:29;;;;;;;14.80;5.33;;;12.00;99.90;;;11.92;67.62;101168.41;4845953;29;20077;-74
2021/10/22 06:02:58;;;;;;;20.13;4.93;;;12.00;99.90;;;12.16;67.64;101218.63;4845384;29;20312;-74
2021/10/22 06:05:27;;;;;;;17.52;4.60;;;12.00;99.90;;;12.03;66.57;101203.69;4845623;29;20072;-74
2021/10/22 06:07:55;;;;;;;13.68;4.40;;;11.90;99.90;;;11.89;65.31;101181.66;4845577;29;20057;-74
2021/10/22 06:10:24;;;;;;;21.88;5.65;;;11.90;99.90;;;11.50;65.82;101124.38;4845514;29;20054;-74
2021/10/22 06:12:54;;;;;;;18.75;5.10;;;11.90;99.90;;;12.10;65.27;101228.41;4845266;29;20076;-74
2021/10/22 06:15:24;;;;;;;18.60;5.30;;;12.00;99.90;;;12.12;65.14;101202.75;4845133;29;20042;-74
2021/10/22 06:17:54;;;;;;;15.93;5.38;;;12.00;99.90;;;12.17;65.99;101233.69;4845622;29;20420;-74
2021/10/22 06:20:28;;;;;;;15.75;4.10;;;12.10;99.90;;;12.14;65.71;101198.31;4845742;29;20074;-74
2021/10/22 06:25:44;;;;;;;26.33;5.85;;;12.10;99.90;;;12.22;67.42;101220.38;4844092;29;20561;-74
2021/10/22 06:28:15;;;;;;;18.83;5.97;;;12.10;99.90;;;12.07;67.32;101180.69;4845181;29;20054;-74
2021/10/22 06:30:45;;;;;;;20.42;5.80;;;12.10;99.90;;;12.22;67.39;101192.09;4845347;29;20049;-74
2021/10/22 06:33:14;;;;;;;18.67;5.10;;;12.20;99.90;;;12.22;67.16;101191.19;4845115;29;20050;-74
2021/10/22 06:35:44;;;;;;;16.83;4.70;;;12.20;99.90;;;12.22;66.33;101218.59;4845244;29;20073;-74
2021/10/22 06:38:13;;;;;;;15.48;5.15;;;12.10;99.90;;;12.17;65.82;101193.00;4845329;29;20492;-74
2021/10/22 06:40:42;;;;;;;15.55;5.25;;;12.10;99.90;;;12.36;65.94;101221.19;4844908;29;20050;-74
2021/10/22 06:43:10;;;;;;;15.02;4.63;;;12.20;99.90;;;12.40;65.87;101239.75;4844994;29;20046;-74
2021/10/22 06:45:38;;;;;;;12.15;4.70;;;12.20;99.90;;;12.52;65.71;101228.16;4844787;29;20049;-74
2021/10/22 06:48:08;;;;;;;19.33;4.55;;;12.30;99.90;;;12.55;65.84;101234.31;4844619;29;20497;-74
2021/10/22 06:50:37;;;;;;;20.97;6.20;;;12.40;99.90;;;12.54;65.07;101231.69;4844956;29;20061;-74
2021/10/22 06:53:07;;;;;;;16.38;4.65;;;12.40;99.90;;;12.46;63.54;101215.81;4844901;29;20121;-74
2021/10/22 06:55:36;;;;;;;16.02;5.55;;;12.40;99.90;;;12.31;62.41;101223.00;4844600;29;20056;-73
2021/10/22 06:58:05;;;;;;;17.50;5.80;;;12.20;99.90;;;12.43;62.68;101239.69;4844246;29;20466;-74
2021/10/22 07:00:35;;;;;;;15.43;4.85;;;12.20;99.90;;;12.17;62.42;101193.91;4844572;29;20118;-74
2021/10/22 07:03:04;;;;;;;17.30;5.63;;;12.20;99.90;;;12.41;62.22;101229.97;4844709;29;20042;-74
2021/10/22 07:05:47;;;;;;;16.02;5.93;;;12.20;99.90;;;12.13;62.29;101186.84;4844638;29;20469;-76
2021/10/22 07:08:15;;;;;;;16.05;5.15;;;12.30;99.90;;;12.39;62.52;101252.97;4844720;29;20489;-74
2021/10/22 07:10:43;;;;;;;20.80;5.55;;;12.20;99.90;;;12.52;62.63;101249.41;4844377;29;20046;-70
2021/10/22 07:13:14;;;;;;;19.35;5.28;;;12.30;99.90;;;12.49;62.90;101258.25;4843174;29;20050;-72
2021/10/22 07:15:43;;;;;;;22.85;4.97;;;12.30;99.90;;;12.47;63.67;101253.81;4844307;29;20405;-73
2021/10/22 07:18:16;;;;;;;22.98;5.65;;;12.30;99.90;;;12.57;63.36;101253.78;4844562;29;20053;-73
2021/10/22 07:20:46;;;;;;;18.27;5.30;;;12.40;99.90;;;12.32;63.67;101230.94;4844308;29;20106;-73
2021/10/22 07:23:15;;;;;;;22.87;5.43;;;12.30;99.90;;;12.50;64.43;101260.00;4844669;29;20053;-73
2021/10/22 07:25:43;;;;;;;18.95;5.00;;;12.40;99.90;;;11.84;64.58;101146.34;4843088;29;20302;-70
2021/10/22 07:28:14;;;;;;;22.30;5.38;;;12.30;99.90;;;12.36;64.44;101210.56;4843846;29;20102;-72
2021/10/22 07:30:48;;;;;;;13.13;4.70;;;12.40;99.90;;;12.42;64.46;101259.19;4843934;29;20041;-74
2021/10/22 07:33:16;;;;;;;18.15;5.05;;;12.30;99.90;;;12.41;64.35;101256.50;4843156;29;20049;-78
2021/10/22 07:35:46;;;;;;;18.00;5.55;;;12.30;99.90;;;12.47;63.87;101260.03;4844545;29;20046;-84
2021/10/22 07:38:15;;;;;;;18.27;4.63;;;12.30;99.90;;;10.81;63.45;100963.19;4845148;29;20114;-91
2021/10/22 07:40:46;;;;;;;14.52;4.90;;;12.40;99.90;;;12.38;62.44;101261.84;4844822;29;20135;-89
2021/10/22 07:43:16;;;;;;;22.95;5.65;;;12.30;99.90;;;12.41;63.11;101264.47;4844524;29;20038;-69
2021/10/22 07:45:46;;;;;;;21.17;6.05;;;12.30;99.90;;;12.77;63.40;101245.69;4844371;29;20460;-79
2021/10/22 07:48:15;;;;;;;17.90;5.18;;;12.60;99.90;;;13.11;63.08;101272.88;4844024;29;20050;-79
2021/10/22 07:50:44;;;;;;;20.27;5.22;;;12.90;99.90;;;13.13;63.60;101279.94;4844214;29;20102;-80
2021/10/22 07:53:14;;;;;;;16.27;4.45;;;12.90;99.90;;;13.05;63.78;101286.19;4843681;29;20125;-80
2021/10/22 07:55:43;;;;;;;26.97;6.27;;;12.90;99.90;;;12.88;64.92;101250.88;4843615;29;20056;-83
2021/10/22 07:58:12;;;;;;;22.42;5.50;;;12.80;99.90;;;12.90;64.53;101263.28;4842889;29;20538;-87
2021/10/22 08:00:40;;;;;;;21.88;5.45;;;12.80;99.90;;;13.00;65.06;101282.66;4843418;29;20565;-87
2021/10/22 08:03:09;;;;;;;23.05;5.35;;;12.80;99.90;;;13.01;65.40;101282.66;4843290;29;20128;-85
2021/10/22 08:05:38;;;;;;;20.55;4.80;;;12.80;99.90;;;12.77;63.52;101266.91;4843335;29;20056;-82
2021/10/22 08:08:08;;;;;;;17.75;5.25;;;12.80;99.90;;;13.04;63.98;101295.97;4843592;29;20056;-81
2021/10/22 08:10:43;;;;;;;19.13;5.22;;;12.90;99.90;;;13.09;63.64;101311.84;4844131;29;20056;-93
2021/10/22 08:13:12;;;;;;;18.38;5.85;;;12.80;99.90;;;12.45;63.69;101203.44;4842497;29;20155;-87
2021/10/22 08:15:44;;;;;;;17.85;5.63;;;12.80;99.90;;;13.06;63.04;101302.13;4843602;29;20049;-89
2021/10/22 08:18:13;;;;;;;15.57;4.80;;;12.90;99.90;;;13.05;63.25;101310.09;4843766;29;20457;-88
2021/10/22 08:20:49;;;;;;;22.45;5.05;;;12.90;99.90;;;12.96;63.78;101305.72;4844252;29;20054;-83
2021/10/22 08:23:19;;;;;;;22.77;5.63;;;12.80;99.90;;;13.07;63.68;101300.34;4842994;29;20049;-83
2021/10/22 08:25:50;;;;;;;24.60;5.55;;;12.90;99.90;;;13.09;64.36;101304.75;4841980;29;20049;-82
2021/10/22 08:28:20;;;;;;;16.42;5.22;;;13.00;99.90;;;12.88;64.04;101296.03;4843010;29;20050;-83
2021/10/22 08:30:55;;;;;;;19.90;5.05;;;13.10;99.90;;;12.97;63.69;101269.44;4843062;29;20110;-82
2021/10/22 08:33:24;;;;;;;20.02;5.45;;;13.00;99.90;;;13.15;64.12;101298.50;4841984;29;20061;-77
2021/10/22 08:35:53;;;;;;;19.35;5.03;;;13.10;99.90;;;13.11;64.36;101287.03;4842894;29;20453;-81
2021/10/22 08:38:22;;;;;;;14.60;4.82;;;13.10;99.90;;;13.17;64.84;101318.88;4843364;29;20054;-84
2021/10/22 08:40:54;;;;;;;20.55;5.70;;;13.00;99.90;;;13.10;65.61;101297.69;4841815;29;20384;-83
2021/10/22 08:43:25;;;;;;;14.50;4.95;;;13.10;99.90;;;13.19;65.48;101324.16;4841742;29;20052;-82
2021/10/22 08:45:56;;;;;;;20.33;5.15;;;13.10;99.90;;;13.22;65.22;101326.81;4843242;29;20050;-80
2021/10/22 08:48:26;;;;;;;21.08;6.57;;;13.00;99.90;;;13.03;65.46;101301.22;4843264;29;20050;-81
2021/10/22 08:50:55;;;;;;;26.42;6.22;;;13.00;99.90;;;13.30;65.82;101338.22;4843037;29;20053;-82
2021/10/22 08:53:24;;;;;;;18.73;5.75;;;13.10;99.90;;;13.32;66.12;101337.34;4843144;29;20054;-82
2021/10/22 08:55:54;;;;;;;15.93;5.25;;;13.10;99.90;;;13.10;66.00;101326.91;4842851;29;20076;-80
2021/10/22 08:58:23;;;;;;;23.52;6.03;;;13.00;99.90;;;12.98;66.35;101318.97;4841407;29;20742;-82
2021/10/22 09:00:52;;;;;;;22.45;5.95;;;13.00;99.90;;;12.92;67.36;101316.34;4842833;29;20046;-79
2021/10/22 09:03:20;;;;;;;14.95;5.38;;;12.90;99.90;;;12.92;67.97;101305.75;4842616;29;20057;-74
2021/10/22 09:06:01;;;;;;;24.38;5.45;;;12.90;99.90;;;12.90;68.08;101313.72;4842473;29;20527;-74
2021/10/22 09:08:31;;;;;;;20.05;5.28;;;12.80;99.90;;;12.97;68.69;101336.66;4842442;29;20054;-74
2021/10/22 09:11:02;;;;;;;;;;;12.80;99.90;;;12.94;68.04;101339.38;4841962;29;20075;-74
2021/10/22 09:13:33;;;;;;;20.58;5.43;;;12.80;99.90;;;12.96;68.46;101348.19;4842413;29;19924;-74
2021/10/22 09:16:20;;;;;;;22.25;5.35;;;12.80;99.90;;;13.00;68.66;101334.00;4842387;29;20038;-74
2021/10/22 09:18:49;;;;;;;15.93;4.93;;;12.90;99.90;;;12.87;68.80;101329.69;4842374;29;20041;-74
2021/10/22 09:21:27;;;;;;;19.50;5.57;;;12.80;99.90;;;13.12;68.81;101355.22;4842794;29;20557;-74
2021/10/22 09:24:16;;;;;;;22.08;5.53;;;12.90;99.90;;;13.17;68.73;101352.50;4841352;29;20136;-73
2021/10/22 09:26:52;;;;;;;15.90;5.28;;;13.00;99.90;;;13.21;68.30;101348.94;4842531;29;20401;-79
2021/10/22 09:29:23;;;;;;;18.48;4.88;;;13.00;99.90;;;13.20;68.80;101358.66;4842257;29;20094;-78
2021/10/22 09:31:52;;;;;;;18.90;5.60;;;13.00;99.90;;;13.09;69.54;101341.03;4842421;29;20049;-77
2021/10/22 09:34:32;;;;;;;16.15;5.40;;;13.00;99.90;;;13.06;68.82;101330.47;4842501;29;20115;-78
2021/10/22 09:37:03;;;;;;;24.40;6.13;;;13.00;99.90;;;13.02;69.09;101369.41;4842764;29;20045;-75
2021/10/22 09:39:36;;;;;;;21.40;5.22;;;12.90;99.90;;;13.01;69.55;101372.94;4842183;29;20034;-75
2021/10/22 09:42:12;;;;;;;21.58;5.32;;;12.90;99.90;;;13.11;70.12;101344.56;4842121;29;20074;-75
2021/10/22 09:44:42;;;;;;;22.08;5.75;;;13.00;99.90;;;13.05;69.83;101336.66;4842538;29;20049;-75
2021/10/22 09:47:17;;;;;;;14.68;5.28;;;13.10;99.90;;;13.41;68.45;101361.16;4841102;29;20057;-75
2021/10/22 09:49:50;;;;;;;20.73;5.18;;;13.30;99.90;;;13.26;67.82;101384.31;4842185;29;20087;-75
2021/10/22 09:52:21;;;;;;;14.73;4.32;;;13.20;99.90;;;13.04;67.59;101338.44;4841104;29;20054;-75
2021/10/22 09:55:12;;;;;;;17.17;5.03;;;13.20;99.90;;;13.63;67.57;101368.97;4842078;29;20064;-76
2021/10/22 09:57:43;;;;;;;21.48;5.38;;;13.50;99.90;;;13.79;66.92;101375.91;4842349;29;20054;-76
2021/10/22 10:00:18;;;;;;;18.20;5.60;;;13.60;99.90;;;13.93;66.84;101389.97;4842704;29;20058;-75
2021/10/22 10:02:47;;;;;;;14.23;4.70;;;13.80;99.90;;;14.37;65.87;101414.34;4842002;29;20049;-75
2021/10/22 10:05:18;;;;;;;11.68;4.63;;;14.20;99.90;;;14.36;64.63;101401.94;4842093;29;20058;-75
2021/10/22 10:07:47;;;;;;;;;;;14.30;99.90;;;12.67;65.78;101111.28;4842824;29;20058;-75
2021/10/22 10:10:16;;;;;;;14.27;4.85;;;14.20;99.90;;;14.50;64.68;101375.19;4842204;29;19971;-75
2021/10/22 10:12:46;;;;;;;16.33;4.90;;;14.50;99.90;;;14.82;65.03;101376.50;4841905;29;20077;-75
2021/10/22 10:15:14;;;;;;;16.50;4.82;;;14.80;99.90;;;14.72;64.67;101412.16;4842268;29;20099;-76
2021/10/22 10:17:47;;;;;;;11.95;4.65;;;14.60;99.90;;;14.38;63.98;101385.03;4841820;29;20133;-76
2021/10/22 10:20:20;;;;;;;18.98;4.95;;;14.40;99.90;;;14.33;65.03;101418.81;4842096;29;20068;-76
2021/10/22 10:22:50;;;;;;;16.83;4.60;;;14.20;99.90;;;14.42;65.40;101415.16;4844624;29;20052;-75